sensor_id;sensor_type;location;lat;lon;timestamp;P1;durP1;ratioP1;P2;durP2;ratioP2
30617;SDS011;17384;51.214;9.202;2023-04-29T00:00:29;11.02;;;8.27;;
30617;SDS011;17384;51.214;9.202;2023-04-29T00:02:54;9.85;;;8.05;;
30617;SDS011;17384;51.214;9.202;2023-04-29T00:05:20;10.90;;;7.90;;
30617;SDS011;17384;51.214;9.202;2023-04-29T00:07:45;10.63;;;7.18;;
30617;SDS011;17384;51.214;9.202;2023-04-29T00:10:11;11.75;;;7.43;;
30617;SDS011;17384;51.214;9.202;2023-04-29T00:12:38;9.63;;;6.97;;
30617;SDS011;17384;51.214;9.202;2023-04-29T00:15:05;9.88;;;7.80;;
30617;SDS011;17384;51.214;9.202;2023-04-29T00:17:32;9.32;;;7.50;;
30617;SDS011;17384;51.214;9.202;2023-04-29T00:19:58;9.43;;;7.07;;
30617;SDS011;17384;51.214;9.202;2023-04-29T00:22:24;11.27;;;8.02;;
30617;SDS011;17384;51.214;9.202;2023-04-29T00:24:49;14.23;;;7.65;;
30617;SDS011;17384;51.214;9.202;2023-04-29T00:27:15;9.90;;;7.22;;
30617;SDS011;17384;51.214;9.202;2023-04-29T00:29:41;10.82;;;7.15;;
30617;SDS011;17384;51.214;9.202;2023-04-29T00:32:07;11.40;;;8.05;;
30617;SDS011;17384;51.214;9.202;2023-04-29T00:34:33;10.43;;;7.13;;
30617;SDS011;17384;51.214;9.202;2023-04-29T00:36:58;14.30;;;7.50;;
30617;SDS011;17384;51.214;9.202;2023-04-29T00:39:24;11.40;;;7.20;;
30617;SDS011;17384;51.214;9.202;2023-04-29T00:41:49;12.05;;;6.40;;
30617;SDS011;17384;51.214;9.202;2023-04-29T00:44:15;8.70;;;6.53;;
30617;SDS011;17384;51.214;9.202;2023-04-29T00:46:41;9.93;;;6.63;;
30617;SDS011;17384;51.214;9.202;2023-04-29T00:49:07;8.70;;;6.45;;
30617;SDS011;17384;51.214;9.202;2023-04-29T00:51:33;9.52;;;6.80;;
30617;SDS011;17384;51.214;9.202;2023-04-29T00:54:01;9.40;;;7.35;;
30617;SDS011;17384;51.214;9.202;2023-04-29T00:56:28;10.23;;;7.00;;
30617;SDS011;17384;51.214;9.202;2023-04-29T00:58:56;9.60;;;7.68;;
30617;SDS011;17384;51.214;9.202;2023-04-29T01:01:22;13.43;;;8.48;;
30617;SDS011;17384;51.214;9.202;2023-04-29T01:03:48;10.95;;;8.07;;
30617;SDS011;17384;51.214;9.202;2023-04-29T01:08:56;11.43;;;7.78;;
30617;SDS011;17384;51.214;9.202;2023-04-29T01:11:38;11.45;;;7.95;;
30617;SDS011;17384;51.214;9.202;2023-04-29T01:14:13;11.25;;;8.18;;
30617;SDS011;17384;51.214;9.202;2023-04-29T01:19:26;10.77;;;7.25;;
30617;SDS011;17384;51.214;9.202;2023-04-29T01:22:01;9.07;;;6.97;;
30617;SDS011;17384;51.214;9.202;2023-04-29T01:24:26;11.45;;;7.40;;
30617;SDS011;17384;51.214;9.202;2023-04-29T01:26:55;10.52;;;7.53;;
30617;SDS011;17384;51.214;9.202;2023-04-29T01:29:27;9.05;;;6.78;;
30617;SDS011;17384;51.214;9.202;2023-04-29T01:32:04;10.80;;;7.03;;
30617;SDS011;17384;51.214;9.202;2023-04-29T01:34:35;9.60;;;6.65;;
30617;SDS011;17384;51.214;9.202;2023-04-29T01:42:43;12.70;;;8.15;;
30617;SDS011;17384;51.214;9.202;2023-04-29T01:45:12;15.30;;;7.72;;
30617;SDS011;17384;51.214;9.202;2023-04-29T01:47:41;9.25;;;6.85;;
30617;SDS011;17384;51.214;9.202;2023-04-29T01:50:07;11.23;;;7.25;;
30617;SDS011;17384;51.214;9.202;2023-04-29T01:52:33;12.35;;;8.48;;
30617;SDS011;17384;51.214;9.202;2023-04-29T01:54:58;12.75;;;8.55;;
30617;SDS011;17384;51.214;9.202;2023-04-29T01:57:23;12.32;;;9.27;;
30617;SDS011;17384;51.214;9.202;2023-04-29T01:59:49;21.33;;;11.27;;
30617;SDS011;17384;51.214;9.202;2023-04-29T02:02:14;18.90;;;12.23;;
30617;SDS011;17384;51.214;9.202;2023-04-29T02:04:41;18.33;;;12.00;;
30617;SDS011;17384;51.214;9.202;2023-04-29T02:07:07;22.27;;;13.82;;
30617;SDS011;17384;51.214;9.202;2023-04-29T02:09:33;22.48;;;15.32;;
30617;SDS011;17384;51.214;9.202;2023-04-29T02:11:58;25.75;;;15.73;;
30617;SDS011;17384;51.214;9.202;2023-04-29T02:14:23;27.00;;;16.13;;
30617;SDS011;17384;51.214;9.202;2023-04-29T02:16:49;23.33;;;15.02;;
30617;SDS011;17384;51.214;9.202;2023-04-29T02:19:14;22.92;;;15.02;;
30617;SDS011;17384;51.214;9.202;2023-04-29T02:21:40;29.90;;;17.33;;
30617;SDS011;17384;51.214;9.202;2023-04-29T02:24:06;26.10;;;17.15;;
30617;SDS011;17384;51.214;9.202;2023-04-29T02:26:31;25.63;;;16.52;;
30617;SDS011;17384;51.214;9.202;2023-04-29T02:28:58;36.25;;;20.20;;
30617;SDS011;17384;51.214;9.202;2023-04-29T02:31:24;33.15;;;19.33;;
30617;SDS011;17384;51.214;9.202;2023-04-29T02:33:49;30.48;;;18.27;;
30617;SDS011;17384;51.214;9.202;2023-04-29T02:36:15;35.75;;;19.73;;
30617;SDS011;17384;51.214;9.202;2023-04-29T02:38:41;33.13;;;19.95;;
30617;SDS011;17384;51.214;9.202;2023-04-29T02:41:07;34.00;;;20.80;;
30617;SDS011;17384;51.214;9.202;2023-04-29T02:43:32;33.28;;;19.88;;
30617;SDS011;17384;51.214;9.202;2023-04-29T02:45:58;32.30;;;20.02;;
30617;SDS011;17384;51.214;9.202;2023-04-29T02:48:24;31.27;;;19.17;;
30617;SDS011;17384;51.214;9.202;2023-04-29T02:50:49;43.03;;;20.08;;
30617;SDS011;17384;51.214;9.202;2023-04-29T02:53:15;36.72;;;20.27;;
30617;SDS011;17384;51.214;9.202;2023-04-29T02:55:41;35.45;;;21.65;;
30617;SDS011;17384;51.214;9.202;2023-04-29T02:58:07;38.38;;;20.90;;
30617;SDS011;17384;51.214;9.202;2023-04-29T03:00:32;39.28;;;20.83;;
30617;SDS011;17384;51.214;9.202;2023-04-29T03:02:58;33.47;;;18.73;;
30617;SDS011;17384;51.214;9.202;2023-04-29T03:05:23;34.58;;;19.25;;
30617;SDS011;17384;51.214;9.202;2023-04-29T03:07:48;34.00;;;19.00;;
30617;SDS011;17384;51.214;9.202;2023-04-29T03:10:14;30.23;;;18.02;;
30617;SDS011;17384;51.214;9.202;2023-04-29T03:12:39;35.70;;;16.75;;
30617;SDS011;17384;51.214;9.202;2023-04-29T03:15:06;27.10;;;16.50;;
30617;SDS011;17384;51.214;9.202;2023-04-29T03:17:32;30.27;;;16.77;;
30617;SDS011;17384;51.214;9.202;2023-04-29T03:19:58;28.50;;;16.83;;
30617;SDS011;17384;51.214;9.202;2023-04-29T03:22:24;28.15;;;16.83;;
30617;SDS011;17384;51.214;9.202;2023-04-29T03:24:49;26.52;;;16.27;;
30617;SDS011;17384;51.214;9.202;2023-04-29T03:27:14;25.88;;;16.10;;
30617;SDS011;17384;51.214;9.202;2023-04-29T03:29:40;26.55;;;15.70;;
30617;SDS011;17384;51.214;9.202;2023-04-29T03:32:05;25.83;;;14.60;;
30617;SDS011;17384;51.214;9.202;2023-04-29T03:34:31;22.15;;;13.65;;
30617;SDS011;17384;51.214;9.202;2023-04-29T03:36:56;18.20;;;11.82;;
30617;SDS011;17384;51.214;9.202;2023-04-29T03:39:22;18.40;;;11.75;;
30617;SDS011;17384;51.214;9.202;2023-04-29T03:41:47;20.15;;;11.38;;
30617;SDS011;17384;51.214;9.202;2023-04-29T03:44:13;14.55;;;9.90;;
30617;SDS011;17384;51.214;9.202;2023-04-29T03:46:38;16.42;;;10.55;;
30617;SDS011;17384;51.214;9.202;2023-04-29T03:49:04;16.42;;;10.60;;
30617;SDS011;17384;51.214;9.202;2023-04-29T03:51:29;14.77;;;10.05;;
30617;SDS011;17384;51.214;9.202;2023-04-29T03:53:55;17.45;;;11.55;;
30617;SDS011;17384;51.214;9.202;2023-04-29T03:56:22;15.05;;;10.70;;
30617;SDS011;17384;51.214;9.202;2023-04-29T03:58:49;16.75;;;11.10;;
30617;SDS011;17384;51.214;9.202;2023-04-29T04:01:15;15.85;;;9.82;;
30617;SDS011;17384;51.214;9.202;2023-04-29T04:03:41;13.77;;;10.25;;
30617;SDS011;17384;51.214;9.202;2023-04-29T04:06:07;12.23;;;8.43;;
30617;SDS011;17384;51.214;9.202;2023-04-29T04:08:33;13.63;;;8.98;;
30617;SDS011;17384;51.214;9.202;2023-04-29T04:10:58;14.07;;;9.02;;
30617;SDS011;17384;51.214;9.202;2023-04-29T04:13:27;15.77;;;10.32;;
30617;SDS011;17384;51.214;9.202;2023-04-29T04:15:53;13.90;;;8.73;;
30617;SDS011;17384;51.214;9.202;2023-04-29T04:18:18;14.07;;;8.73;;
30617;SDS011;17384;51.214;9.202;2023-04-29T04:20:44;12.43;;;8.43;;
30617;SDS011;17384;51.214;9.202;2023-04-29T04:23:09;14.30;;;9.75;;
30617;SDS011;17384;51.214;9.202;2023-04-29T04:25:35;12.82;;;8.82;;
30617;SDS011;17384;51.214;9.202;2023-04-29T04:28:00;20.13;;;10.05;;
30617;SDS011;17384;51.214;9.202;2023-04-29T04:30:26;14.82;;;10.05;;
30617;SDS011;17384;51.214;9.202;2023-04-29T04:32:51;15.57;;;10.05;;
30617;SDS011;17384;51.214;9.202;2023-04-29T04:35:17;14.07;;;9.55;;
30617;SDS011;17384;51.214;9.202;2023-04-29T04:37:42;16.02;;;10.32;;
30617;SDS011;17384;51.214;9.202;2023-04-29T04:40:08;18.98;;;10.43;;
30617;SDS011;17384;51.214;9.202;2023-04-29T04:42:35;17.98;;;10.55;;
30617;SDS011;17384;51.214;9.202;2023-04-29T04:45:00;15.32;;;10.07;;
30617;SDS011;17384;51.214;9.202;2023-04-29T04:47:26;16.52;;;9.77;;
30617;SDS011;17384;51.214;9.202;2023-04-29T04:49:52;16.70;;;10.05;;
30617;SDS011;17384;51.214;9.202;2023-04-29T04:52:20;15.90;;;9.48;;
30617;SDS011;17384;51.214;9.202;2023-04-29T04:54:46;13.18;;;7.63;;
30617;SDS011;17384;51.214;9.202;2023-04-29T04:57:12;12.48;;;7.38;;
30617;SDS011;17384;51.214;9.202;2023-04-29T04:59:37;14.57;;;6.75;;
30617;SDS011;17384;51.214;9.202;2023-04-29T05:02:03;11.18;;;7.47;;
30617;SDS011;17384;51.214;9.202;2023-04-29T05:04:29;10.98;;;6.07;;
30617;SDS011;17384;51.214;9.202;2023-04-29T05:06:54;9.82;;;5.78;;
30617;SDS011;17384;51.214;9.202;2023-04-29T05:09:19;10.40;;;5.78;;
30617;SDS011;17384;51.214;9.202;2023-04-29T05:11:45;10.90;;;5.88;;
30617;SDS011;17384;51.214;9.202;2023-04-29T05:14:10;13.20;;;7.30;;
30617;SDS011;17384;51.214;9.202;2023-04-29T05:16:36;11.43;;;6.63;;
30617;SDS011;17384;51.214;9.202;2023-04-29T05:19:02;12.57;;;6.82;;
30617;SDS011;17384;51.214;9.202;2023-04-29T05:21:27;11.13;;;6.00;;
30617;SDS011;17384;51.214;9.202;2023-04-29T05:23:53;10.77;;;6.10;;
30617;SDS011;17384;51.214;9.202;2023-04-29T05:26:18;10.88;;;5.72;;
30617;SDS011;17384;51.214;9.202;2023-04-29T05:28:43;10.02;;;5.65;;
30617;SDS011;17384;51.214;9.202;2023-04-29T05:31:09;14.57;;;7.47;;
30617;SDS011;17384;51.214;9.202;2023-04-29T05:33:35;11.38;;;7.60;;
30617;SDS011;17384;51.214;9.202;2023-04-29T05:36:00;10.52;;;6.43;;
30617;SDS011;17384;51.214;9.202;2023-04-29T05:38:26;13.43;;;6.63;;
30617;SDS011;17384;51.214;9.202;2023-04-29T05:40:54;12.90;;;7.03;;
30617;SDS011;17384;51.214;9.202;2023-04-29T05:43:19;13.02;;;7.40;;
30617;SDS011;17384;51.214;9.202;2023-04-29T05:45:45;18.83;;;9.00;;
30617;SDS011;17384;51.214;9.202;2023-04-29T05:48:11;17.10;;;9.38;;
30617;SDS011;17384;51.214;9.202;2023-04-29T05:50:36;17.63;;;9.48;;
30617;SDS011;17384;51.214;9.202;2023-04-29T05:53:02;18.45;;;9.32;;
30617;SDS011;17384;51.214;9.202;2023-04-29T05:55:28;19.52;;;9.98;;
30617;SDS011;17384;51.214;9.202;2023-04-29T05:57:54;19.45;;;10.68;;
30617;SDS011;17384;51.214;9.202;2023-04-29T06:00:20;17.55;;;9.38;;
30617;SDS011;17384;51.214;9.202;2023-04-29T06:02:45;17.38;;;9.30;;
30617;SDS011;17384;51.214;9.202;2023-04-29T06:05:12;20.35;;;9.95;;
30617;SDS011;17384;51.214;9.202;2023-04-29T06:07:39;21.08;;;10.95;;
30617;SDS011;17384;51.214;9.202;2023-04-29T06:10:06;23.25;;;11.05;;
30617;SDS011;17384;51.214;9.202;2023-04-29T06:12:32;26.40;;;12.23;;
30617;SDS011;17384;51.214;9.202;2023-04-29T06:14:58;22.92;;;11.63;;
30617;SDS011;17384;51.214;9.202;2023-04-29T06:17:23;23.10;;;12.65;;
30617;SDS011;17384;51.214;9.202;2023-04-29T06:19:49;26.23;;;12.30;;
30617;SDS011;17384;51.214;9.202;2023-04-29T06:22:14;26.85;;;14.73;;
30617;SDS011;17384;51.214;9.202;2023-04-29T06:24:39;33.58;;;16.05;;
30617;SDS011;17384;51.214;9.202;2023-04-29T06:27:05;29.27;;;14.90;;
30617;SDS011;17384;51.214;9.202;2023-04-29T06:29:31;32.08;;;14.98;;
30617;SDS011;17384;51.214;9.202;2023-04-29T06:31:56;34.42;;;16.30;;
30617;SDS011;17384;51.214;9.202;2023-04-29T06:34:21;31.55;;;15.40;;
30617;SDS011;17384;51.214;9.202;2023-04-29T06:36:47;32.92;;;17.00;;
30617;SDS011;17384;51.214;9.202;2023-04-29T06:39:12;33.65;;;18.25;;
30617;SDS011;17384;51.214;9.202;2023-04-29T06:41:38;34.08;;;17.50;;
30617;SDS011;17384;51.214;9.202;2023-04-29T06:44:04;31.90;;;17.52;;
30617;SDS011;17384;51.214;9.202;2023-04-29T06:46:30;36.78;;;17.73;;
30617;SDS011;17384;51.214;9.202;2023-04-29T06:48:55;28.77;;;15.85;;
30617;SDS011;17384;51.214;9.202;2023-04-29T06:51:21;39.85;;;18.08;;
30617;SDS011;17384;51.214;9.202;2023-04-29T06:53:46;29.58;;;14.20;;
30617;SDS011;17384;51.214;9.202;2023-04-29T06:56:12;29.20;;;15.15;;
30617;SDS011;17384;51.214;9.202;2023-04-29T06:58:37;29.88;;;14.52;;
30617;SDS011;17384;51.214;9.202;2023-04-29T07:01:03;27.02;;;15.23;;
30617;SDS011;17384;51.214;9.202;2023-04-29T07:03:29;24.30;;;13.07;;
30617;SDS011;17384;51.214;9.202;2023-04-29T07:05:55;26.23;;;13.48;;
30617;SDS011;17384;51.214;9.202;2023-04-29T07:08:20;20.67;;;13.00;;
30617;SDS011;17384;51.214;9.202;2023-04-29T07:10:55;19.75;;;11.32;;
30617;SDS011;17384;51.214;9.202;2023-04-29T07:13:22;22.88;;;12.15;;
30617;SDS011;17384;51.214;9.202;2023-04-29T07:15:48;17.92;;;10.02;;
30617;SDS011;17384;51.214;9.202;2023-04-29T07:18:13;20.48;;;12.32;;
30617;SDS011;17384;51.214;9.202;2023-04-29T07:20:38;20.73;;;11.13;;
30617;SDS011;17384;51.214;9.202;2023-04-29T07:23:04;18.80;;;10.13;;
30617;SDS011;17384;51.214;9.202;2023-04-29T07:25:29;22.45;;;12.50;;
30617;SDS011;17384;51.214;9.202;2023-04-29T07:27:55;18.75;;;10.90;;
30617;SDS011;17384;51.214;9.202;2023-04-29T07:30:21;16.50;;;10.45;;
30617;SDS011;17384;51.214;9.202;2023-04-29T07:32:47;16.25;;;9.80;;
30617;SDS011;17384;51.214;9.202;2023-04-29T07:35:13;17.92;;;9.90;;
30617;SDS011;17384;51.214;9.202;2023-04-29T07:37:38;14.73;;;9.18;;
30617;SDS011;17384;51.214;9.202;2023-04-29T07:40:04;16.27;;;9.85;;
30617;SDS011;17384;51.214;9.202;2023-04-29T07:42:30;15.75;;;7.85;;
30617;SDS011;17384;51.214;9.202;2023-04-29T07:44:55;13.98;;;8.10;;
30617;SDS011;17384;51.214;9.202;2023-04-29T07:47:21;14.98;;;9.20;;
30617;SDS011;17384;51.214;9.202;2023-04-29T07:49:46;12.00;;;7.57;;
30617;SDS011;17384;51.214;9.202;2023-04-29T07:52:12;14.75;;;7.63;;
30617;SDS011;17384;51.214;9.202;2023-04-29T07:54:37;15.65;;;8.52;;
30617;SDS011;17384;51.214;9.202;2023-04-29T07:57:03;13.00;;;8.48;;
30617;SDS011;17384;51.214;9.202;2023-04-29T07:59:29;14.05;;;8.15;;
30617;SDS011;17384;51.214;9.202;2023-04-29T08:01:55;12.77;;;7.55;;
30617;SDS011;17384;51.214;9.202;2023-04-29T08:04:20;11.65;;;7.18;;
30617;SDS011;17384;51.214;9.202;2023-04-29T08:06:45;14.38;;;7.95;;
30617;SDS011;17384;51.214;9.202;2023-04-29T08:09:11;14.18;;;7.82;;
30617;SDS011;17384;51.214;9.202;2023-04-29T08:11:37;15.93;;;8.20;;
30617;SDS011;17384;51.214;9.202;2023-04-29T08:14:04;12.68;;;7.80;;
30617;SDS011;17384;51.214;9.202;2023-04-29T08:16:30;14.57;;;7.93;;
30617;SDS011;17384;51.214;9.202;2023-04-29T08:18:55;13.45;;;7.88;;
30617;SDS011;17384;51.214;9.202;2023-04-29T08:21:21;13.25;;;8.15;;
30617;SDS011;17384;51.214;9.202;2023-04-29T08:23:47;8.88;;;6.63;;
30617;SDS011;17384;51.214;9.202;2023-04-29T08:26:12;12.43;;;7.45;;
30617;SDS011;17384;51.214;9.202;2023-04-29T08:28:38;10.32;;;6.45;;
30617;SDS011;17384;51.214;9.202;2023-04-29T08:31:04;10.07;;;6.97;;
30617;SDS011;17384;51.214;9.202;2023-04-29T08:33:32;11.80;;;7.97;;
30617;SDS011;17384;51.214;9.202;2023-04-29T08:35:58;11.50;;;7.55;;
30617;SDS011;17384;51.214;9.202;2023-04-29T08:38:24;15.15;;;7.57;;
30617;SDS011;17384;51.214;9.202;2023-04-29T08:40:50;11.45;;;8.48;;
30617;SDS011;17384;51.214;9.202;2023-04-29T08:43:15;13.23;;;8.57;;
30617;SDS011;17384;51.214;9.202;2023-04-29T08:45:42;17.23;;;9.32;;
30617;SDS011;17384;51.214;9.202;2023-04-29T08:48:08;16.35;;;9.73;;
30617;SDS011;17384;51.214;9.202;2023-04-29T08:50:40;12.43;;;8.57;;
30617;SDS011;17384;51.214;9.202;2023-04-29T08:53:06;14.68;;;9.32;;
30617;SDS011;17384;51.214;9.202;2023-04-29T08:55:40;14.05;;;8.85;;
30617;SDS011;17384;51.214;9.202;2023-04-29T08:58:07;19.38;;;11.43;;
30617;SDS011;17384;51.214;9.202;2023-04-29T09:00:33;21.40;;;12.45;;
30617;SDS011;17384;51.214;9.202;2023-04-29T09:03:00;18.10;;;12.05;;
30617;SDS011;17384;51.214;9.202;2023-04-29T09:05:36;22.13;;;12.98;;
30617;SDS011;17384;51.214;9.202;2023-04-29T09:08:05;23.50;;;13.32;;
30617;SDS011;17384;51.214;9.202;2023-04-29T09:10:32;21.63;;;12.40;;
30617;SDS011;17384;51.214;9.202;2023-04-29T09:13:01;22.85;;;13.75;;
30617;SDS011;17384;51.214;9.202;2023-04-29T09:15:26;24.75;;;14.82;;
30617;SDS011;17384;51.214;9.202;2023-04-29T09:17:53;24.92;;;14.98;;
30617;SDS011;17384;51.214;9.202;2023-04-29T09:22:50;29.20;;;14.65;;
30617;SDS011;17384;51.214;9.202;2023-04-29T09:25:24;21.73;;;13.43;;
30617;SDS011;17384;51.214;9.202;2023-04-29T09:27:50;23.30;;;12.80;;
30617;SDS011;17384;51.214;9.202;2023-04-29T09:30:16;23.90;;;14.45;;
30617;SDS011;17384;51.214;9.202;2023-04-29T09:32:42;26.05;;;15.40;;
30617;SDS011;17384;51.214;9.202;2023-04-29T09:35:24;24.98;;;15.25;;
30617;SDS011;17384;51.214;9.202;2023-04-29T09:38:06;30.50;;;17.48;;
30617;SDS011;17384;51.214;9.202;2023-04-29T09:40:42;34.63;;;19.30;;
30617;SDS011;17384;51.214;9.202;2023-04-29T09:43:12;37.13;;;20.98;;
30617;SDS011;17384;51.214;9.202;2023-04-29T09:45:40;39.90;;;21.00;;
30617;SDS011;17384;51.214;9.202;2023-04-29T09:48:07;37.38;;;21.15;;
30617;SDS011;17384;51.214;9.202;2023-04-29T09:50:34;46.67;;;21.48;;
30617;SDS011;17384;51.214;9.202;2023-04-29T09:53:03;35.92;;;22.05;;
30617;SDS011;17384;51.214;9.202;2023-04-29T09:55:31;38.17;;;21.40;;
30617;SDS011;17384;51.214;9.202;2023-04-29T09:57:57;37.92;;;20.50;;
30617;SDS011;17384;51.214;9.202;2023-04-29T10:00:22;40.60;;;22.35;;
30617;SDS011;17384;51.214;9.202;2023-04-29T10:02:49;41.65;;;23.15;;
30617;SDS011;17384;51.214;9.202;2023-04-29T10:05:18;43.92;;;23.15;;
30617;SDS011;17384;51.214;9.202;2023-04-29T10:07:45;40.50;;;22.52;;
30617;SDS011;17384;51.214;9.202;2023-04-29T10:10:12;41.78;;;23.55;;
30617;SDS011;17384;51.214;9.202;2023-04-29T10:12:39;43.72;;;23.73;;
30617;SDS011;17384;51.214;9.202;2023-04-29T10:17:44;38.22;;;21.95;;
30617;SDS011;17384;51.214;9.202;2023-04-29T10:20:13;36.58;;;21.65;;
30617;SDS011;17384;51.214;9.202;2023-04-29T10:22:47;36.55;;;21.25;;
30617;SDS011;17384;51.214;9.202;2023-04-29T10:25:14;37.63;;;22.50;;
30617;SDS011;17384;51.214;9.202;2023-04-29T10:27:42;39.50;;;23.02;;
30617;SDS011;17384;51.214;9.202;2023-04-29T10:30:15;37.63;;;22.13;;
30617;SDS011;17384;51.214;9.202;2023-04-29T10:35:08;36.28;;;21.35;;
30617;SDS011;17384;51.214;9.202;2023-04-29T10:37:39;36.63;;;20.85;;
30617;SDS011;17384;51.214;9.202;2023-04-29T10:40:14;34.20;;;20.77;;
30617;SDS011;17384;51.214;9.202;2023-04-29T10:42:49;36.55;;;21.10;;
30617;SDS011;17384;51.214;9.202;2023-04-29T10:45:26;34.63;;;22.35;;
30617;SDS011;17384;51.214;9.202;2023-04-29T10:50:28;38.80;;;22.40;;
30617;SDS011;17384;51.214;9.202;2023-04-29T10:52:54;39.47;;;23.27;;
30617;SDS011;17384;51.214;9.202;2023-04-29T10:55:21;39.22;;;22.90;;
30617;SDS011;17384;51.214;9.202;2023-04-29T10:57:47;37.10;;;22.30;;
30617;SDS011;17384;51.214;9.202;2023-04-29T11:00:26;40.50;;;23.40;;
30617;SDS011;17384;51.214;9.202;2023-04-29T11:02:53;41.90;;;23.33;;
30617;SDS011;17384;51.214;9.202;2023-04-29T11:05:32;42.50;;;23.00;;
30617;SDS011;17384;51.214;9.202;2023-04-29T11:10:51;41.50;;;23.40;;
30617;SDS011;17384;51.214;9.202;2023-04-29T11:13:24;38.90;;;22.80;;
30617;SDS011;17384;51.214;9.202;2023-04-29T11:16:03;40.53;;;24.27;;
30617;SDS011;17384;51.214;9.202;2023-04-29T11:18:29;42.78;;;24.15;;
30617;SDS011;17384;51.214;9.202;2023-04-29T11:23:37;35.58;;;22.58;;
30617;SDS011;17384;51.214;9.202;2023-04-29T11:26:05;37.13;;;22.60;;
30617;SDS011;17384;51.214;9.202;2023-04-29T11:28:31;37.17;;;23.90;;
30617;SDS011;17384;51.214;9.202;2023-04-29T11:30:58;36.13;;;21.48;;
30617;SDS011;17384;51.214;9.202;2023-04-29T11:33:24;37.92;;;22.98;;
30617;SDS011;17384;51.214;9.202;2023-04-29T11:35:51;41.33;;;23.95;;
30617;SDS011;17384;51.214;9.202;2023-04-29T11:38:26;36.92;;;21.33;;
30617;SDS011;17384;51.214;9.202;2023-04-29T11:40:56;38.47;;;22.67;;
30617;SDS011;17384;51.214;9.202;2023-04-29T11:43:22;42.15;;;22.13;;
30617;SDS011;17384;51.214;9.202;2023-04-29T11:45:49;38.95;;;23.05;;
30617;SDS011;17384;51.214;9.202;2023-04-29T11:48:25;34.80;;;22.33;;
30617;SDS011;17384;51.214;9.202;2023-04-29T11:50:56;37.17;;;22.30;;
30617;SDS011;17384;51.214;9.202;2023-04-29T11:53:23;32.40;;;21.70;;
30617;SDS011;17384;51.214;9.202;2023-04-29T11:55:51;40.47;;;22.83;;
30617;SDS011;17384;51.214;9.202;2023-04-29T11:58:19;41.20;;;22.35;;
30617;SDS011;17384;51.214;9.202;2023-04-29T12:00:48;37.80;;;23.35;;
30617;SDS011;17384;51.214;9.202;2023-04-29T12:03:14;37.17;;;23.15;;
30617;SDS011;17384;51.214;9.202;2023-04-29T12:08:20;41.53;;;23.75;;
30617;SDS011;17384;51.214;9.202;2023-04-29T12:10:46;42.53;;;24.38;;
30617;SDS011;17384;51.214;9.202;2023-04-29T12:13:12;36.67;;;22.02;;
30617;SDS011;17384;51.214;9.202;2023-04-29T12:15:38;41.15;;;24.25;;
30617;SDS011;17384;51.214;9.202;2023-04-29T12:18:04;40.92;;;22.90;;
30617;SDS011;17384;51.214;9.202;2023-04-29T12:20:29;39.63;;;23.05;;
30617;SDS011;17384;51.214;9.202;2023-04-29T12:22:55;41.17;;;22.75;;
30617;SDS011;17384;51.214;9.202;2023-04-29T12:25:26;39.67;;;22.25;;
30617;SDS011;17384;51.214;9.202;2023-04-29T12:27:57;36.83;;;23.55;;
30617;SDS011;17384;51.214;9.202;2023-04-29T12:30:24;31.70;;;21.63;;
30617;SDS011;17384;51.214;9.202;2023-04-29T12:32:50;35.00;;;21.83;;
30617;SDS011;17384;51.214;9.202;2023-04-29T12:35:16;30.85;;;19.30;;
30617;SDS011;17384;51.214;9.202;2023-04-29T12:37:42;35.88;;;21.77;;
30617;SDS011;17384;51.214;9.202;2023-04-29T12:40:12;32.28;;;21.17;;
30617;SDS011;17384;51.214;9.202;2023-04-29T12:42:40;35.22;;;20.95;;
30617;SDS011;17384;51.214;9.202;2023-04-29T12:45:05;38.10;;;22.80;;
30617;SDS011;17384;51.214;9.202;2023-04-29T12:47:32;33.13;;;22.00;;
30617;SDS011;17384;51.214;9.202;2023-04-29T12:49:59;34.33;;;20.58;;
30617;SDS011;17384;51.214;9.202;2023-04-29T12:52:25;37.38;;;20.90;;
30617;SDS011;17384;51.214;9.202;2023-04-29T12:54:50;30.80;;;19.65;;
30617;SDS011;17384;51.214;9.202;2023-04-29T12:57:16;29.48;;;18.52;;
30617;SDS011;17384;51.214;9.202;2023-04-29T12:59:41;34.40;;;19.63;;
30617;SDS011;17384;51.214;9.202;2023-04-29T13:02:06;27.80;;;17.45;;
30617;SDS011;17384;51.214;9.202;2023-04-29T13:04:32;26.48;;;17.77;;
30617;SDS011;17384;51.214;9.202;2023-04-29T13:06:57;26.70;;;17.42;;
30617;SDS011;17384;51.214;9.202;2023-04-29T13:09:26;31.98;;;18.77;;
30617;SDS011;17384;51.214;9.202;2023-04-29T13:11:52;23.77;;;16.73;;
30617;SDS011;17384;51.214;9.202;2023-04-29T13:14:17;26.90;;;19.02;;
30617;SDS011;17384;51.214;9.202;2023-04-29T13:16:43;31.23;;;20.23;;
30617;SDS011;17384;51.214;9.202;2023-04-29T13:19:09;26.77;;;18.05;;
30617;SDS011;17384;51.214;9.202;2023-04-29T13:21:35;27.63;;;19.02;;
30617;SDS011;17384;51.214;9.202;2023-04-29T13:24:00;27.73;;;18.55;;
30617;SDS011;17384;51.214;9.202;2023-04-29T13:26:26;26.58;;;18.33;;
30617;SDS011;17384;51.214;9.202;2023-04-29T13:28:52;25.23;;;17.10;;
30617;SDS011;17384;51.214;9.202;2023-04-29T13:31:18;27.15;;;17.38;;
30617;SDS011;17384;51.214;9.202;2023-04-29T13:33:43;25.02;;;17.80;;
30617;SDS011;17384;51.214;9.202;2023-04-29T13:36:09;25.73;;;17.70;;
30617;SDS011;17384;51.214;9.202;2023-04-29T13:38:35;24.38;;;17.20;;
30617;SDS011;17384;51.214;9.202;2023-04-29T13:41:00;23.27;;;16.75;;
30617;SDS011;17384;51.214;9.202;2023-04-29T13:43:26;24.58;;;15.77;;
30617;SDS011;17384;51.214;9.202;2023-04-29T13:45:51;20.63;;;14.60;;
30617;SDS011;17384;51.214;9.202;2023-04-29T13:48:16;22.83;;;13.90;;
30617;SDS011;17384;51.214;9.202;2023-04-29T13:50:43;19.30;;;14.18;;
30617;SDS011;17384;51.214;9.202;2023-04-29T13:53:09;26.77;;;16.55;;
30617;SDS011;17384;51.214;9.202;2023-04-29T13:55:35;23.60;;;17.05;;
30617;SDS011;17384;51.214;9.202;2023-04-29T13:58:06;20.50;;;14.82;;
30617;SDS011;17384;51.214;9.202;2023-04-29T14:00:32;20.73;;;16.30;;
30617;SDS011;17384;51.214;9.202;2023-04-29T14:02:58;22.08;;;15.65;;
30617;SDS011;17384;51.214;9.202;2023-04-29T14:05:23;22.23;;;16.52;;
30617;SDS011;17384;51.214;9.202;2023-04-29T14:07:49;20.42;;;15.18;;
30617;SDS011;17384;51.214;9.202;2023-04-29T14:10:16;24.90;;;16.02;;
30617;SDS011;17384;51.214;9.202;2023-04-29T14:12:41;25.45;;;16.55;;
30617;SDS011;17384;51.214;9.202;2023-04-29T14:15:07;27.40;;;17.58;;
30617;SDS011;17384;51.214;9.202;2023-04-29T14:17:32;29.08;;;19.73;;
30617;SDS011;17384;51.214;9.202;2023-04-29T14:19:58;28.60;;;20.77;;
30617;SDS011;17384;51.214;9.202;2023-04-29T14:22:23;31.25;;;20.70;;
30617;SDS011;17384;51.214;9.202;2023-04-29T14:24:58;27.75;;;20.13;;
30617;SDS011;17384;51.214;9.202;2023-04-29T14:27:23;29.15;;;19.25;;
30617;SDS011;17384;51.214;9.202;2023-04-29T14:29:48;32.72;;;22.67;;
30617;SDS011;17384;51.214;9.202;2023-04-29T14:32:14;38.25;;;26.25;;
30617;SDS011;17384;51.214;9.202;2023-04-29T14:34:40;33.63;;;24.15;;
30617;SDS011;17384;51.214;9.202;2023-04-29T14:37:06;33.20;;;24.17;;
30617;SDS011;17384;51.214;9.202;2023-04-29T14:39:32;36.35;;;27.17;;
30617;SDS011;17384;51.214;9.202;2023-04-29T14:41:57;36.88;;;26.70;;
30617;SDS011;17384;51.214;9.202;2023-04-29T14:44:23;37.53;;;24.13;;
30617;SDS011;17384;51.214;9.202;2023-04-29T14:46:48;28.73;;;21.23;;
30617;SDS011;17384;51.214;9.202;2023-04-29T14:49:14;35.83;;;22.88;;
30617;SDS011;17384;51.214;9.202;2023-04-29T14:51:39;33.47;;;22.88;;